createdAt,value
2023-05-24T00:02:27.143Z,12.70
2023-05-24T00:05:01.191Z,12.60
2023-05-24T00:07:31.520Z,12.70
2023-05-24T00:10:02.681Z,12.60
2023-05-24T00:12:35.090Z,12.60
2023-05-24T00:15:06.088Z,12.60
2023-05-24T00:17:43.236Z,12.60
2023-05-24T00:20:23.139Z,12.60
2023-05-24T00:23:07.123Z,12.60
2023-05-24T00:25:50.329Z,12.60
2023-05-24T00:28:26.249Z,12.70
2023-05-24T00:30:59.815Z,12.60
2023-05-24T00:33:57.250Z,12.60
2023-05-24T00:36:59.389Z,12.60
2023-05-24T00:39:35.909Z,12.60
2023-05-24T00:42:09.612Z,12.60
2023-05-24T00:44:51.591Z,12.60
2023-05-24T00:47:22.161Z,12.60
2023-05-24T00:50:09.280Z,12.70
2023-05-24T00:52:44.330Z,12.70
2023-05-24T00:57:59.410Z,12.60
2023-05-24T01:00:56.518Z,12.60
2023-05-24T01:04:02.593Z,12.70
2023-05-24T01:06:45.155Z,12.60
2023-05-24T01:09:33.614Z,12.60
2023-05-24T01:12:22.707Z,12.60
2023-05-24T01:15:06.117Z,12.70
2023-05-24T01:17:46.360Z,12.60
2023-05-24T01:20:22.823Z,12.70
2023-05-24T01:23:37.994Z,12.70
2023-05-24T01:26:32.482Z,12.60
2023-05-24T01:29:05.990Z,12.60
2023-05-24T01:31:41.571Z,12.60
2023-05-24T01:34:28.696Z,12.60
2023-05-24T01:37:11.322Z,12.60
2023-05-24T01:39:42.103Z,12.60
2023-05-24T01:42:32.921Z,12.60
2023-05-24T01:45:26.573Z,12.60
2023-05-24T01:48:08.549Z,12.50
2023-05-24T01:50:58.473Z,12.40
2023-05-24T01:53:35.303Z,12.50
2023-05-24T01:56:10.281Z,12.40
2023-05-24T01:58:48.059Z,12.40
2023-05-24T02:01:21.601Z,12.40
2023-05-24T02:03:56.829Z,12.40
2023-05-24T02:06:35.044Z,12.40
2023-05-24T02:09:06.431Z,12.40
2023-05-24T02:11:41.989Z,12.40
2023-05-24T02:14:20.552Z,12.40
2023-05-24T02:17:04.168Z,12.40
2023-05-24T02:19:45.117Z,12.40
2023-05-24T02:22:15.806Z,12.40
2023-05-24T02:24:47.496Z,12.40
2023-05-24T02:27:46.434Z,12.40
2023-05-24T02:30:32.828Z,12.40
2023-05-24T02:33:03.753Z,12.40
2023-05-24T02:35:35.605Z,12.40
2023-05-24T02:38:07.021Z,12.40
2023-05-24T02:40:44.614Z,12.40
2023-05-24T02:43:17.184Z,12.40
2023-05-24T02:46:03.015Z,12.30
2023-05-24T02:48:45.933Z,12.30
2023-05-24T02:51:30.752Z,12.40
2023-05-24T02:54:00.578Z,12.40
2023-05-24T02:59:18.361Z,12.40
2023-05-24T03:02:14.487Z,12.40
2023-05-24T03:04:54.803Z,12.50
2023-05-24T03:07:30.020Z,12.50
2023-05-24T03:10:08.392Z,12.50
2023-05-24T03:12:40.240Z,12.50
2023-05-24T03:15:13.259Z,12.40
2023-05-24T03:17:42.211Z,12.50
2023-05-24T03:20:24.706Z,12.50
2023-05-24T03:22:58.652Z,12.50
2023-05-24T03:25:32.912Z,12.50
2023-05-24T03:28:02.865Z,12.50
2023-05-24T03:30:34.228Z,12.50
2023-05-24T03:33:04.745Z,12.50
2023-05-24T03:35:43.192Z,12.50
2023-05-24T03:38:32.489Z,12.50
2023-05-24T03:41:02.431Z,12.60
2023-05-24T03:43:32.633Z,12.60
2023-05-24T03:46:32.779Z,12.60
2023-05-24T03:49:24.854Z,12.60
2023-05-24T03:52:01.502Z,12.60
2023-05-24T03:57:16.840Z,12.70
2023-05-24T03:59:50.495Z,12.80
2023-05-24T04:02:31.177Z,12.80
2023-05-24T04:05:29.189Z,12.80
2023-05-24T04:08:09.259Z,12.80
2023-05-24T04:10:40.667Z,12.90
2023-05-24T04:13:16.646Z,12.90
2023-05-24T04:15:48.106Z,12.80
2023-05-24T04:18:18.325Z,12.90
2023-05-24T04:20:50.673Z,12.90
2023-05-24T04:23:26.884Z,12.90
2023-05-24T04:26:01.134Z,12.90
2023-05-24T04:28:35.428Z,12.90
2023-05-24T04:31:07.643Z,13.00
2023-05-24T04:33:39.928Z,13.00
2023-05-24T04:36:19.278Z,13.00
2023-05-24T04:38:59.559Z,13.10
2023-05-24T04:41:34.300Z,13.10
2023-05-24T04:44:04.117Z,13.20
2023-05-24T04:46:38.476Z,13.20
2023-05-24T04:49:11.198Z,13.20
2023-05-24T04:51:43.920Z,13.20
2023-05-24T04:54:25.653Z,13.20
2023-05-24T04:57:03.517Z,13.20
2023-05-24T04:59:41.842Z,13.20
2023-05-24T05:02:15.966Z,13.30
2023-05-24T05:04:48.712Z,13.30
2023-05-24T05:07:19.474Z,13.30
2023-05-24T05:09:57.711Z,13.30
2023-05-24T05:13:00.614Z,13.30
2023-05-24T05:15:49.720Z,13.30
2023-05-24T05:18:25.365Z,13.20
2023-05-24T05:21:14.529Z,13.30
2023-05-24T05:23:46.347Z,13.30
2023-05-24T05:26:24.966Z,13.30
2023-05-24T05:28:55.636Z,13.40
2023-05-24T05:32:24.711Z,13.40
2023-05-24T05:35:05.395Z,13.40
2023-05-24T05:37:35.663Z,13.40
2023-05-24T05:40:26.252Z,13.50
2023-05-24T05:43:05.738Z,13.50
2023-05-24T05:45:41.692Z,13.50
2023-05-24T05:48:14.694Z,13.60
2023-05-24T05:50:55.429Z,13.70
2023-05-24T05:53:42.324Z,13.70
2023-05-24T05:56:24.894Z,13.60
2023-05-24T05:59:14.151Z,13.60
2023-05-24T06:01:52.117Z,13.50
2023-05-24T06:04:33.510Z,13.60
2023-05-24T06:07:04.233Z,13.60
2023-05-24T06:09:37.869Z,13.70
2023-05-24T06:12:11.960Z,13.80
2023-05-24T06:15:09.861Z,13.90
2023-05-24T06:17:46.594Z,13.90
2023-05-24T06:20:27.106Z,13.90
2023-05-24T06:23:11.909Z,13.90
2023-05-24T06:25:44.187Z,14.00
2023-05-24T06:28:18.884Z,14.10
2023-05-24T06:30:59.353Z,14.10
2023-05-24T06:33:29.920Z,14.10
2023-05-24T06:38:50.019Z,14.10
2023-05-24T06:41:20.342Z,14.10
2023-05-24T06:43:55.062Z,14.10
2023-05-24T06:46:28.555Z,14.20
2023-05-24T06:49:04.032Z,14.20
2023-05-24T06:51:39.010Z,14.20
2023-05-24T06:54:11.969Z,14.20
2023-05-24T06:56:42.602Z,14.20
2023-05-24T06:59:15.333Z,14.30
2023-05-24T07:02:01.230Z,14.30
2023-05-24T07:04:41.322Z,14.20
2023-05-24T07:07:14.065Z,14.30
2023-05-24T07:09:56.700Z,14.40
2023-05-24T07:15:13.389Z,14.60
2023-05-24T07:17:57.841Z,14.90
2023-05-24T07:20:29.027Z,15.10
2023-05-24T07:23:57.946Z,15.10
2023-05-24T07:26:27.135Z,15.10
2023-05-24T07:29:00.694Z,15.10
2023-05-24T07:31:44.290Z,15.00
2023-05-24T07:34:27.342Z,15.00
2023-05-24T07:37:03.263Z,14.80
2023-05-24T07:39:35.543Z,14.80
2023-05-24T07:42:15.610Z,14.90
2023-05-24T07:44:47.482Z,15.20
2023-05-24T07:47:19.381Z,15.40
2023-05-24T07:49:48.889Z,15.50
2023-05-24T07:52:32.903Z,15.80
2023-05-24T07:55:06.282Z,16.00
2023-05-24T07:57:37.325Z,16.00
2023-05-24T08:00:16.964Z,15.90
2023-05-24T08:03:16.049Z,15.80
2023-05-24T08:06:03.940Z,15.70
2023-05-24T08:08:40.293Z,15.60
2023-05-24T08:11:18.501Z,15.50
2023-05-24T08:13:53.038Z,15.50
2023-05-24T08:16:23.161Z,15.60
2023-05-24T08:19:07.072Z,15.60
2023-05-24T08:21:44.423Z,15.70
2023-05-24T08:24:22.643Z,15.90
2023-05-24T08:26:55.300Z,16.00
2023-05-24T08:29:29.243Z,16.20
2023-05-24T08:32:00.104Z,16.20
2023-05-24T08:34:30.850Z,16.30
2023-05-24T08:37:07.880Z,16.30
2023-05-24T08:39:43.715Z,16.30
2023-05-24T08:42:16.077Z,16.10
2023-05-24T08:44:50.510Z,16.10
2023-05-24T08:47:26.128Z,16.00
2023-05-24T08:49:57.456Z,16.00
2023-05-24T08:52:42.780Z,15.90
2023-05-24T08:55:36.567Z,15.80
2023-05-24T08:58:14.949Z,15.60
2023-05-24T09:00:59.721Z,15.50
2023-05-24T09:03:30.798Z,15.50
2023-05-24T09:06:03.825Z,15.40
2023-05-24T09:08:37.841Z,15.30
2023-05-24T09:11:10.985Z,15.30
2023-05-24T09:13:46.694Z,15.20
2023-05-24T09:16:22.484Z,15.20
2023-05-24T09:18:58.610Z,15.10
2023-05-24T09:21:35.975Z,15.00
2023-05-24T09:24:10.313Z,15.00
2023-05-24T09:27:14.938Z,15.00
2023-05-24T09:29:50.283Z,15.10
2023-05-24T09:32:25.183Z,15.20
2023-05-24T09:34:55.205Z,15.20
2023-05-24T09:37:31.072Z,15.30
2023-05-24T09:40:09.335Z,15.30
2023-05-24T09:42:51.714Z,15.40
2023-05-24T09:45:28.851Z,15.50
2023-05-24T09:47:58.817Z,15.60
2023-05-24T09:50:32.352Z,15.60
2023-05-24T09:53:05.384Z,15.60
2023-05-24T09:55:48.955Z,15.40
2023-05-24T09:58:30.838Z,15.60
2023-05-24T10:01:17.146Z,16.00
2023-05-24T10:03:56.060Z,16.70
2023-05-24T10:06:30.645Z,17.10
2023-05-24T10:09:05.678Z,17.20
2023-05-24T10:11:47.553Z,17.30
2023-05-24T10:14:27.468Z,17.40
2023-05-24T10:16:58.738Z,17.30
2023-05-24T10:19:32.022Z,17.30
2023-05-24T10:22:05.344Z,17.40
2023-05-24T10:24:52.707Z,17.60
2023-05-24T10:27:30.142Z,17.90
2023-05-24T10:30:14.618Z,18.00
2023-05-24T10:32:52.861Z,17.90
2023-05-24T10:35:26.181Z,17.80
2023-05-24T10:37:58.379Z,17.80
2023-05-24T10:40:33.013Z,17.90
2023-05-24T10:43:08.335Z,18.10
2023-05-24T10:45:46.863Z,18.10
2023-05-24T10:48:43.040Z,18.00
2023-05-24T10:51:41.012Z,17.80
2023-05-24T10:54:18.304Z,17.70
2023-05-24T10:57:07.220Z,17.80
2023-05-24T10:59:47.951Z,17.90
2023-05-24T11:02:42.083Z,17.90
2023-05-24T11:05:14.817Z,17.90
2023-05-24T11:07:46.464Z,18.00
2023-05-24T11:10:31.670Z,17.90
2023-05-24T11:13:14.670Z,17.90
2023-05-24T11:16:02.861Z,17.90
2023-05-24T11:19:01.184Z,18.00
2023-05-24T11:21:50.628Z,18.20
2023-05-24T11:24:32.928Z,18.60
2023-05-24T11:27:08.470Z,19.00
2023-05-24T11:29:47.730Z,19.20
2023-05-24T11:32:19.590Z,19.40
2023-05-24T11:35:00.324Z,19.60
2023-05-24T11:40:18.397Z,19.80
2023-05-24T11:42:49.342Z,19.70
2023-05-24T11:45:27.750Z,19.60
2023-05-24T11:47:58.112Z,19.40
2023-05-24T11:50:48.737Z,19.20
2023-05-24T11:53:33.955Z,19.30
2023-05-24T11:56:05.461Z,19.50
2023-05-24T11:58:54.604Z,19.60
2023-05-24T12:01:27.931Z,19.50
2023-05-24T12:04:00.679Z,19.40
2023-05-24T12:06:41.684Z,19.20
2023-05-24T12:09:14.827Z,19.10
2023-05-24T12:11:44.914Z,18.90
2023-05-24T12:14:29.513Z,18.70
2023-05-24T12:17:10.704Z,18.60
2023-05-24T12:19:45.803Z,18.60
2023-05-24T12:22:20.726Z,18.60
2023-05-24T12:25:06.223Z,18.60
2023-05-24T12:27:38.616Z,18.80
2023-05-24T12:30:22.961Z,19.10
2023-05-24T12:33:23.261Z,19.60
2023-05-24T12:35:57.927Z,20.10
2023-05-24T12:38:39.227Z,20.40
2023-05-24T12:41:21.895Z,20.60
2023-05-24T12:44:04.904Z,20.90
2023-05-24T12:46:36.694Z,21.40
2023-05-24T12:49:14.420Z,22.10
2023-05-24T12:51:54.877Z,23.30
2023-05-24T12:54:28.164Z,23.50
2023-05-24T12:57:17.989Z,24.00
2023-05-24T12:59:48.546Z,24.30
2023-05-24T13:02:22.912Z,25.40
2023-05-24T13:05:03.750Z,25.90
2023-05-24T13:07:49.193Z,25.80
2023-05-24T13:10:33.843Z,25.70
2023-05-24T13:13:04.903Z,25.60
2023-05-24T13:15:36.413Z,25.10
2023-05-24T13:18:10.654Z,24.80
2023-05-24T13:20:46.901Z,24.40
2023-05-24T13:23:21.340Z,24.40
2023-05-24T13:26:00.106Z,24.10
2023-05-24T13:28:36.014Z,23.60
2023-05-24T13:31:07.529Z,23.40
2023-05-24T13:33:38.888Z,23.00
2023-05-24T13:36:23.794Z,23.20
2023-05-24T13:39:06.534Z,23.60
2023-05-24T13:41:49.943Z,23.70
2023-05-24T13:44:30.519Z,23.70
2023-05-24T13:47:04.667Z,23.10
2023-05-24T13:49:42.525Z,23.00
2023-05-24T13:52:17.988Z,23.30
2023-05-24T13:54:51.890Z,24.00
2023-05-24T13:57:29.386Z,24.60
2023-05-24T14:00:09.901Z,25.00
2023-05-24T14:02:50.338Z,25.20
2023-05-24T14:05:28.104Z,24.90
2023-05-24T14:08:06.663Z,24.40
2023-05-24T14:10:47.471Z,24.40
2023-05-24T14:13:55.733Z,24.80
2023-05-24T14:16:19.015Z,24.80
2023-05-24T14:18:54.580Z,25.10
2023-05-24T14:21:27.566Z,24.90
2023-05-24T14:24:02.496Z,24.70
2023-05-24T14:26:34.406Z,24.30
2023-05-24T14:29:07.427Z,24.10
2023-05-24T14:31:43.541Z,23.80
2023-05-24T14:34:28.109Z,23.70
2023-05-24T14:36:58.445Z,24.20
2023-05-24T14:39:28.912Z,24.60
2023-05-24T14:42:14.083Z,24.70
2023-05-24T14:44:47.535Z,24.40
2023-05-24T14:47:18.967Z,24.10
2023-05-24T14:49:55.159Z,23.90
2023-05-24T14:52:26.323Z,24.10
2023-05-24T14:55:03.855Z,24.00
2023-05-24T14:57:34.085Z,23.50
2023-05-24T15:00:14.731Z,23.00
2023-05-24T15:02:55.641Z,22.50
2023-05-24T15:05:27.331Z,22.70
2023-05-24T15:08:05.741Z,22.70
2023-05-24T15:10:41.513Z,22.70
2023-05-24T15:13:16.449Z,22.30
2023-05-24T15:16:10.543Z,22.10
2023-05-24T15:18:42.952Z,22.30
2023-05-24T15:21:21.952Z,22.10
2023-05-24T15:23:53.248Z,22.00
2023-05-24T15:26:28.141Z,22.00
2023-05-24T15:29:01.592Z,22.00
2023-05-24T15:31:37.554Z,21.90
2023-05-24T15:34:11.061Z,21.80
2023-05-24T15:36:44.877Z,21.90
2023-05-24T15:39:22.155Z,21.80
2023-05-24T15:41:55.256Z,21.80
2023-05-24T15:44:39.560Z,21.70
2023-05-24T15:47:22.400Z,21.70
2023-05-24T15:49:53.789Z,21.70
2023-05-24T15:52:27.154Z,21.60
2023-05-24T15:54:57.397Z,21.70
2023-05-24T15:57:35.548Z,21.70
2023-05-24T16:00:32.028Z,21.60
2023-05-24T16:03:09.313Z,21.40
2023-05-24T16:05:49.900Z,21.20
2023-05-24T16:08:27.791Z,21.10
2023-05-24T16:11:10.749Z,21.00
2023-05-24T16:13:43.198Z,20.90
2023-05-24T16:16:17.773Z,20.50
2023-05-24T16:18:57.521Z,20.40
2023-05-24T16:21:36.896Z,20.30
2023-05-24T16:24:22.500Z,20.10
2023-05-24T16:26:57.151Z,19.90
2023-05-24T16:29:52.382Z,19.70
2023-05-24T16:32:29.077Z,19.50
2023-05-24T16:35:09.448Z,19.40
2023-05-24T16:37:38.276Z,19.00
2023-05-24T16:40:13.305Z,18.80
2023-05-24T16:42:56.801Z,18.70
2023-05-24T16:45:37.350Z,18.60
2023-05-24T16:48:15.062Z,18.40
2023-05-24T16:50:47.362Z,18.30
2023-05-24T16:53:16.823Z,18.20
2023-05-24T16:56:08.461Z,18.00
2023-05-24T16:58:54.963Z,17.90
2023-05-24T17:01:29.864Z,17.70
2023-05-24T17:04:00.107Z,17.70
2023-05-24T17:06:52.158Z,17.60
2023-05-24T17:09:26.515Z,17.60
2023-05-24T17:12:16.856Z,17.50
2023-05-24T17:14:53.104Z,17.50
2023-05-24T17:17:26.542Z,17.40
2023-05-24T17:20:19.501Z,17.40
2023-05-24T17:23:08.438Z,17.20
2023-05-24T17:25:51.927Z,17.10
2023-05-24T17:28:27.728Z,17.10
2023-05-24T17:31:03.687Z,16.90
2023-05-24T17:33:34.788Z,16.90
2023-05-24T17:36:07.755Z,16.80
2023-05-24T17:38:59.504Z,16.70
2023-05-24T17:41:38.473Z,16.60
2023-05-24T17:44:15.768Z,16.50
2023-05-24T17:46:44.713Z,16.40
2023-05-24T17:49:18.332Z,16.30
2023-05-24T17:51:57.175Z,16.20
2023-05-24T17:55:01.591Z,16.20
2023-05-24T17:57:37.362Z,16.20
2023-05-24T18:00:22.384Z,16.20
2023-05-24T18:03:09.935Z,16.10
2023-05-24T18:05:58.682Z,16.00
2023-05-24T18:08:31.571Z,15.90
2023-05-24T18:11:13.633Z,15.80
2023-05-24T18:13:57.914Z,15.70
2023-05-24T18:16:31.846Z,15.60
2023-05-24T18:19:10.367Z,15.50
2023-05-24T18:21:41.638Z,15.50
2023-05-24T18:24:15.305Z,15.50
2023-05-24T18:26:47.459Z,15.40
2023-05-24T18:29:38.717Z,15.30
2023-05-24T18:32:15.531Z,15.10
2023-05-24T18:34:54.310Z,15.20
2023-05-24T18:37:29.239Z,15.10
2023-05-24T18:40:28.435Z,15.00
2023-05-24T18:43:04.556Z,14.90
2023-05-24T18:45:58.127Z,14.90
2023-05-24T18:48:31.323Z,14.80
2023-05-24T18:51:04.602Z,14.80
2023-05-24T18:53:35.725Z,14.80
2023-05-24T18:56:17.927Z,14.80
2023-05-24T18:59:02.675Z,14.80
2023-05-24T19:01:47.549Z,14.90
2023-05-24T19:04:19.594Z,14.80
2023-05-24T19:06:52.586Z,14.80
2023-05-24T19:09:25.688Z,14.70
2023-05-24T19:12:04.118Z,14.60
2023-05-24T19:14:36.213Z,14.50
2023-05-24T19:17:11.546Z,14.50
2023-05-24T19:19:44.241Z,14.50
2023-05-24T19:22:32.208Z,14.50
2023-05-24T19:25:03.463Z,14.50
2023-05-24T19:27:36.248Z,14.40
2023-05-24T19:30:12.406Z,14.30
2023-05-24T19:32:54.727Z,14.30
2023-05-24T19:35:26.190Z,14.20
2023-05-24T19:38:11.406Z,14.10
2023-05-24T19:40:48.226Z,14.00
2023-05-24T19:43:32.144Z,13.90
2023-05-24T19:46:17.180Z,13.90
2023-05-24T19:49:13.000Z,13.80
2023-05-24T19:51:51.778Z,13.70
2023-05-24T19:54:50.199Z,13.70
2023-05-24T19:57:49.397Z,13.60
2023-05-24T20:00:24.345Z,13.60
2023-05-24T20:03:07.586Z,13.50
2023-05-24T20:05:49.662Z,13.60
2023-05-24T20:09:01.701Z,13.60
2023-05-24T20:11:35.959Z,13.70
2023-05-24T20:14:33.730Z,13.80
2023-05-24T20:17:10.683Z,13.80
2023-05-24T20:19:40.321Z,13.90
2023-05-24T20:22:14.952Z,13.90
2023-05-24T20:24:53.466Z,13.90
2023-05-24T20:27:29.554Z,13.80
2023-05-24T20:30:04.212Z,13.80
2023-05-24T20:32:37.118Z,13.80
2023-05-24T20:35:12.682Z,13.70
2023-05-24T20:37:56.804Z,13.70
2023-05-24T20:40:39.293Z,13.60
2023-05-24T20:43:14.064Z,13.50
2023-05-24T20:45:54.976Z,13.40
2023-05-24T20:48:25.907Z,13.20
2023-05-24T20:51:01.801Z,13.10
2023-05-24T20:53:50.393Z,13.10
2023-05-24T20:56:34.950Z,13.10
2023-05-24T20:59:17.712Z,13.10
2023-05-24T21:01:47.686Z,13.10
2023-05-24T21:04:24.981Z,13.10
2023-05-24T21:06:57.851Z,13.00
2023-05-24T21:09:28.455Z,12.90
2023-05-24T21:12:07.417Z,12.90
2023-05-24T21:14:42.081Z,12.80
2023-05-24T21:17:13.905Z,12.80
2023-05-24T21:20:00.495Z,12.70
2023-05-24T21:22:33.695Z,12.70
2023-05-24T21:25:17.509Z,12.70
2023-05-24T21:27:48.352Z,12.70
2023-05-24T21:30:21.260Z,12.70
2023-05-24T21:33:02.944Z,12.70
2023-05-24T21:35:33.732Z,12.60
2023-05-24T21:38:04.687Z,12.60
2023-05-24T21:40:38.869Z,12.60
2023-05-24T21:43:25.420Z,12.60
2023-05-24T21:46:04.390Z,12.60
2023-05-24T21:48:35.801Z,12.60
2023-05-24T21:51:22.959Z,12.50
2023-05-24T21:53:54.252Z,12.50
2023-05-24T21:56:27.192Z,12.50
2023-05-24T21:58:58.632Z,12.40
2023-05-24T22:01:44.440Z,12.30
2023-05-24T22:04:22.310Z,12.20
2023-05-24T22:06:51.307Z,12.10
2023-05-24T22:09:30.311Z,12.10
2023-05-24T22:12:05.834Z,12.10
2023-05-24T22:14:37.802Z,12.10
2023-05-24T22:17:36.443Z,12.00
2023-05-24T22:20:10.878Z,12.00
2023-05-24T22:22:50.866Z,11.90
2023-05-24T22:25:25.390Z,11.80
2023-05-24T22:28:07.520Z,11.80
2023-05-24T22:30:43.837Z,11.90
2023-05-24T22:33:13.972Z,11.90
2023-05-24T22:35:55.816Z,11.80
2023-05-24T22:38:28.111Z,11.80
2023-05-24T22:41:08.652Z,11.90
2023-05-24T22:43:49.412Z,11.90
2023-05-24T22:46:22.329Z,11.80
2023-05-24T22:49:02.756Z,11.90
2023-05-24T22:51:49.160Z,11.90
2023-05-24T22:55:18.450Z,11.90
2023-05-24T22:57:55.381Z,11.80
2023-05-24T23:00:41.994Z,11.70
2023-05-24T23:03:13.809Z,11.60
2023-05-24T23:05:48.661Z,11.60
2023-05-24T23:08:22.607Z,11.60
2023-05-24T23:10:58.379Z,11.60
2023-05-24T23:13:35.279Z,11.60
2023-05-24T23:16:09.513Z,11.60
2023-05-24T23:18:46.788Z,11.50
2023-05-24T23:21:23.602Z,11.40
2023-05-24T23:23:57.828Z,11.40
2023-05-24T23:26:29.200Z,11.40
2023-05-24T23:29:00.377Z,11.40
2023-05-24T23:31:36.987Z,11.40
2023-05-24T23:34:10.766Z,11.30
2023-05-24T23:36:48.312Z,11.30
2023-05-24T23:39:22.629Z,11.30
2023-05-24T23:41:55.509Z,11.20
2023-05-24T23:44:26.181Z,11.20
2023-05-24T23:47:05.660Z,11.20
2023-05-24T23:49:45.733Z,11.10
2023-05-24T23:52:18.005Z,11.10
2023-05-24T23:54:48.740Z,11.00
2023-05-24T23:57:35.529Z,11.10
